Albuquerque, NM (87110)

4:06 AM MDT on May 06, 2015 (GMT -0600)
SWCP (Indian School & San Mateo NE) | | Change Station
CLOSE
Current Station
Personal Weather Station
Location: Albuquerque, NM
Elevation: 5213 ft
Nearby Weather Stations

Elev 5213 ft 35.10 °N, 106.59 °W | Updated 59 seconds ago

Overcast
Overcast
53.1 °F
Feels Like 53.1 °F
N
0.0
Wind Variable Wind from SE
Gusts 4.0 mph

Today
High -- | Low -- °F
--% Chance of Precip.
Yesterday
High -- | Low -- °F
Precip. -- in
6:10 AM 7:55 PM
Waning Gibbous, 95% visible
Pressure 29.82 in
Visibility 10.0 miles
Clouds Few 3500 ft
Mostly Cloudy 7000 ft
Overcast 8500 ft
Dew Point 45 °F
Humidity 75%
Rainfall 0.00 in
Snow Depth Not available.
UV 0 out of 12
Pollen 4.60 out of 12
Air Quality Not available.
Flu Activity Local Activity
METAR KABQ 060752Z 20006KT 10SM FEW035 BKN070 OVC085 12/07 A2995 RMK AO2 RAE0657 SLP096 MTNS OBSC NE-SE P0000 T01220067

More Conditions Fewer Conditions

Pressure 29.82 in
Visibility 10.0 miles
Clouds Few 3500 ft
Mostly Cloudy 7000 ft
Overcast 8500 ft
Dew Point 45 °F
Humidity 75%
Rainfall 0.00 in
Snow Depth Not available.
UV 0 out of 12
Pollen 4.60 out of 12
Air Quality Not available.
Flu Activity Local Activity
METAR KABQ 060752Z 20006KT 10SM FEW035 BKN070 OVC085 12/07 A2995 RMK AO2 RAE0657 SLP096 MTNS OBSC NE-SE P0000 T01220067

More Conditions Fewer Conditions

10-Day Weather Forecast

Almanac

Astronomy

May. 06, 2015 Rise Set
Actual Time
Civil Twilight
Nautical Twilight
Astronomical Twilight
Moon
Length of Visible Light
Length of Day
Tomorrow will be .
, % of the Moon is Illuminated

Today's Extremes

State Highs State Lows

Community

WunderPhotos

Upload Photos

1,818,859 photos uploaded!

WunderBlogs® & News

Nearby

Air Quality

  Air Quality AQ Index Pollutant
Not available.

Snow Depth

Station Depth Elevation

Earthquake Activity

City Distance Mag. Time & Date
Minimum magnitude displayed is 2.5.

Coastal Water Temperatures

Place Temperature

Stations

Nearby Weather Stations

Station Location Temp. Windchill Dew Point Humidity Wind Precip. Elev Updated Type